Time;durP1;ratioP1;P1;durP2;ratioP2;P2;SDS_P1;SDS_P2;PMS_P1;PMS_P2;Temp;Humidity;BMP_temperature;BMP_pressure;BME280_temperature;BME280_humidity;BME280_pressure;Samples;Min_cycle;Max_cycle;Signal;HPM_P1;HPM_P2
2021/09/05 00:02:19;;;;;;;;;;;;;;;;;;5051982;28;19924;-77
2021/09/05 00:05:03;;;;;;;;;;;;;;;;;;5044889;28;20437;-77
2021/09/05 00:07:47;;;;;;;;;;;;;;;;;;5032164;28;19920;-77
2021/09/05 00:10:31;;;;;;;;;;;;;;;;;;5032674;28;19924;-77
2021/09/05 00:13:16;;;;;;;;;;;;;;;;;;5031744;28;19944;-77
2021/09/05 00:16:00;;;;;;;;;;;;;;;;;;5046795;28;20293;-77
2021/09/05 00:18:44;;;;;;;;;;;;;;;;;;5036630;28;20393;-77
2021/09/05 00:21:28;;;;;;;;;;;;;;;;;;5037263;28;19920;-77
2021/09/05 00:24:13;;;;;;;;;;;;;;;;;;5051048;28;19920;-77
2021/09/05 00:26:57;;;;;;;;;;;;;;;;;;5037073;28;19920;-77
2021/09/05 00:29:41;;;;;;;;;;;;;;;;;;5050894;28;19920;-77
2021/09/05 00:32:25;;;;;;;;;;;;;;;;;;5005306;28;19940;-77
2021/09/05 00:35:09;;;;;;;;;;;;;;;;;;5031035;28;19921;-77
2021/09/05 00:37:55;;;;;;;;;;;;;;;;;;5040864;28;19988;-77
2021/09/05 00:40:39;;;;;;;;;;;;;;;;;;5037205;28;19928;-77
2021/09/05 00:43:23;;;;;;;;;;;;;;;;;;5020607;28;19928;-77
2021/09/05 00:46:08;;;;;;;;;;;;;;;;;;5040642;28;19924;-77
2021/09/05 00:48:52;;;;;;;;;;;;;;;;;;5036406;28;19920;-77
2021/09/05 00:51:36;;;;;;;;;;;;;;;;;;5035862;28;20293;-77
2021/09/05 00:54:23;;;;;;;;;;;;;;;;;;5040282;28;19924;-77
2021/09/05 00:57:07;;;;;;;;;;;;;;;;;;5035491;28;19920;-77
2021/09/05 00:59:52;;;;;;;;;;;;;;;;;;5036188;28;19920;-77
2021/09/05 01:02:38;;;;;;;;;;;;;;;;;;5035270;28;19925;-77
2021/09/05 01:05:22;;;;;;;;;;;;;;;;;;5038211;28;20420;-77
2021/09/05 01:08:06;;;;;;;;;;;;;;;;;;5036022;28;19920;-77
2021/09/05 01:11:10;;;;;;;;;;;;;;;;;;5036215;28;19920;-78
2021/09/05 01:14:19;;;;;;;;;;;;;;;;;;5016594;28;20309;-76
2021/09/05 01:17:03;;;;;;;;;;;;;;;;;;5035079;28;19920;-76
2021/09/05 01:20:06;;;;;;;;;;;;;;;;;;5035328;28;20292;-76
2021/09/05 01:23:19;;;;;;;;;;;;;;;;;;5032948;28;19920;-76
2021/09/05 01:26:29;;;;;;;;;;;;;;;;;;5014508;28;20333;-76
2021/09/05 01:29:33;;;;;;;;;;;;;;;;;;5015031;28;19937;-76
2021/09/05 01:32:49;;;;;;;;;;;;;;;;;;4996349;28;19920;-76
2021/09/05 01:35:53;;;;;;;;;;;;;;;;;;5014276;28;19921;-76
2021/09/05 01:39:03;;;;;;;;;;;;;;;;;;5004796;28;19921;-76
2021/09/05 01:42:19;;;;;;;;;;;;;;;;;;5014770;28;20486;-76
2021/09/05 01:45:22;;;;;;;;;;;;;;;;;;5030629;28;19924;-78
2021/09/05 01:48:36;;;;;;;;;;;;;;;;;;5032780;28;19920;-76
2021/09/05 01:51:43;;;;;;;;;;;;;;;;;;5035583;28;20488;-78
2021/09/05 01:55:02;;;;;;;;;;;;;;;;;;5031932;28;20016;-77
2021/09/05 01:58:13;;;;;;;;;;;;;;;;;;5035557;28;19929;-78
2021/09/05 02:01:32;;;;;;;;;;;;;;;;;;5035046;28;20036;-78
2021/09/05 02:04:35;;;;;;;;;;;;;;;;;;5035121;28;19992;-78
2021/09/05 02:07:38;;;;;;;;;;;;;;;;;;5037050;28;19920;-78
2021/09/05 02:10:43;;;;;;;;;;;;;;;;;;5038076;28;20321;-78
2021/09/05 02:13:46;;;;;;;;;;;;;;;;;;5033422;28;19920;-77
2021/09/05 02:16:49;;;;;;;;;;;;;;;;;;5016295;28;19920;-76
2021/09/05 02:19:55;;;;;;;;;;;;;;;;;;5020509;28;20297;-77
2021/09/05 02:22:58;;;;;;;;;;;;;;;;;;5029929;28;19920;-77
2021/09/05 02:25:53;;;;;;;;;;;;;;;;;;5033484;28;19924;-76
2021/09/05 02:28:58;;;;;;;;;;;;;;;;;;5000292;28;19920;-78
2021/09/05 02:32:11;;;;;;;;;;;;;;;;;;4970073;28;19921;-78
2021/09/05 02:35:21;;;;;;;;;;;;;;;;;;5013294;28;19936;-78
2021/09/05 02:38:35;;;;;;;;;;;;;;;;;;5034955;28;19921;-76
2021/09/05 02:41:46;;;;;;;;;;;;;;;;;;5034586;28;19920;-78
2021/09/05 02:45:00;;;;;;;;;;;;;;;;;;5039593;28;19940;-78
2021/09/05 02:48:07;;;;;;;;;;;;;;;;;;5037709;28;19920;-78
2021/09/05 02:51:08;;;;;;;;;;;;;;;;;;5041262;28;19920;-78
2021/09/05 02:54:19;;;;;;;;;;;;;;;;;;5038137;28;19921;-78
2021/09/05 02:57:23;;;;;;;;;;;;;;;;;;5029293;28;19920;-78
2021/09/05 03:00:36;;;;;;;;;;;;;;;;;;5018127;28;19921;-78
2021/09/05 03:03:38;;;;;;;;;;;;;;;;;;5016834;28;19920;-78
2021/09/05 03:06:43;;;;;;;;;;;;;;;;;;5031800;28;19924;-78
2021/09/05 03:09:46;;;;;;;;;;;;;;;;;;5034961;28;19925;-78
2021/09/05 03:12:49;;;;;;;;;;;;;;;;;;5046527;28;19940;-77
2021/09/05 03:15:52;;;;;;;;;;;;;;;;;;5033770;28;19928;-78
2021/09/05 03:19:02;;;;;;;;;;;;;;;;;;5036165;28;19972;-78
2021/09/05 03:22:05;;;;;;;;;;;;;;;;;;5035781;28;19924;-78
2021/09/05 03:25:12;;;;;;;;;;;;;;;;;;5035854;28;19924;-79
2021/09/05 03:28:15;;;;;;;;;;;;;;;;;;5035729;28;19928;-79
2021/09/05 03:31:18;;;;;;;;;;;;;;;;;;5035624;28;19972;-78
2021/09/05 03:34:29;;;;;;;;;;;;;;;;;;5034500;28;19920;-78
2021/09/05 03:37:52;;;;;;;;;;;;;;;;;;4973425;28;19921;-78
2021/09/05 03:40:55;;;;;;;;;;;;;;;;;;4974856;28;19925;-78
2021/09/05 03:43:57;;;;;;;;;;;;;;;;;;5052220;28;20297;-78
2021/09/05 03:47:00;;;;;;;;;;;;;;;;;;5034408;28;20397;-78
2021/09/05 03:50:07;;;;;;;;;;;;;;;;;;5032384;28;19924;-78
2021/09/05 03:52:53;;;;;;;;;;;;;;;;;;5036792;28;19928;-78
2021/09/05 03:55:40;;;;;;;;;;;;;;;;;;5031782;28;19920;-78
2021/09/05 03:58:25;;;;;;;;;;;;;;;;;;5050298;28;19920;-78
2021/09/05 04:01:10;;;;;;;;;;;;;;;;;;5035150;28;19921;-78
2021/09/05 04:03:57;;;;;;;;;;;;;;;;;;5035517;28;19921;-78
2021/09/05 04:06:44;;;;;;;;;;;;;;;;;;5033968;28;19924;-78
2021/09/05 04:12:31;;;;;;;;;;;;;;;;;;5035874;28;19920;-78
2021/09/05 04:15:15;;;;;;;;;;;;;;;;;;5033088;28;20420;-78
2021/09/05 04:18:00;;;;;;;;;;;;;;;;;;5033922;28;19920;-78
2021/09/05 04:20:44;;;;;;;;;;;;;;;;;;5035186;28;19920;-78
2021/09/05 04:23:28;;;;;;;;;;;;;;;;;;5034977;28;20309;-78
2021/09/05 04:26:12;;;;;;;;;;;;;;;;;;5023351;28;19932;-78
2021/09/05 04:28:57;;;;;;;;;;;;;;;;;;5040735;28;19920;-78
2021/09/05 04:31:41;;;;;;;;;;;;;;;;;;5051883;28;20412;-78
2021/09/05 04:34:25;;;;;;;;;;;;;;;;;;5041722;28;19924;-79
2021/09/05 04:37:09;;;;;;;;;;;;;;;;;;5028137;28;20401;-80
2021/09/05 04:39:54;;;;;;;;;;;;;;;;;;5033524;28;19920;-79
2021/09/05 04:42:38;;;;;;;;;;;;;;;;;;5020598;28;19936;-80
2021/09/05 04:45:23;;;;;;;;;;;;;;;;;;5028862;28;19924;-80
2021/09/05 04:48:07;;;;;;;;;;;;;;;;;;5036790;28;19945;-80
2021/09/05 04:50:51;;;;;;;;;;;;;;;;;;5048455;28;19920;-80
2021/09/05 04:53:36;;;;;;;;;;;;;;;;;;5048659;28;20601;-81
2021/09/05 04:56:20;;;;;;;;;;;;;;;;;;5046808;28;19920;-80
2021/09/05 04:59:04;;;;;;;;;;;;;;;;;;5047954;28;20411;-80
2021/09/05 05:01:48;;;;;;;;;;;;;;;;;;5035362;28;19919;-78
2021/09/05 05:04:32;;;;;;;;;;;;;;;;;;5050067;28;19928;-79
2021/09/05 05:07:17;;;;;;;;;;;;;;;;;;5036911;28;19999;-79
2021/09/05 05:10:01;;;;;;;;;;;;;;;;;;5040470;28;20416;-81
2021/09/05 05:12:45;;;;;;;;;;;;;;;;;;5039838;28;19924;-80
2021/09/05 05:15:29;;;;;;;;;;;;;;;;;;5040478;28;19920;-80
2021/09/05 05:18:14;;;;;;;;;;;;;;;;;;5025400;28;19937;-80
2021/09/05 05:20:58;;;;;;;;;;;;;;;;;;5019448;28;19920;-80
2021/09/05 05:23:42;;;;;;;;;;;;;;;;;;5047594;28;20020;-80
2021/09/05 05:26:26;;;;;;;;;;;;;;;;;;5052575;28;20470;-80
2021/09/05 05:29:10;;;;;;;;;;;;;;;;;;5040184;28;19920;-79
2021/09/05 05:31:54;;;;;;;;;;;;;;;;;;5039686;28;19921;-79
2021/09/05 05:34:39;;;;;;;;;;;;;;;;;;5039974;28;20408;-79
2021/09/05 05:37:23;;;;;;;;;;;;;;;;;;5037112;28;19920;-80
2021/09/05 05:40:07;;;;;;;;;;;;;;;;;;5040052;28;20393;-79
2021/09/05 05:42:51;;;;;;;;;;;;;;;;;;5042668;28;19936;-79
2021/09/05 05:45:36;;;;;;;;;;;;;;;;;;5038948;28;19928;-81
2021/09/05 05:48:20;;;;;;;;;;;;;;;;;;5037555;28;19920;-80
2021/09/05 05:51:05;;;;;;;;;;;;;;;;;;5052378;28;19935;-79
2021/09/05 05:53:49;;;;;;;;;;;;;;;;;;5037942;28;19920;-79
2021/09/05 05:56:33;;;;;;;;;;;;;;;;;;5039992;28;19920;-79
2021/09/05 05:59:17;;;;;;;;;;;;;;;;;;5038279;28;19920;-79
2021/09/05 06:02:02;;;;;;;;;;;;;;;;;;5041042;28;19921;-78
2021/09/05 06:04:46;;;;;;;;;;;;;;;;;;5040247;28;19924;-80
2021/09/05 06:07:30;;;;;;;;;;;;;;;;;;5039950;28;19920;-79
2021/09/05 06:10:14;;;;;;;;;;;;;;;;;;5038662;28;19924;-79
2021/09/05 06:12:58;;;;;;;;;;;;;;;;;;5039166;28;19921;-80
2021/09/05 06:15:43;;;;;;;;;;;;;;;;;;5019925;28;19924;-80
2021/09/05 06:18:27;;;;;;;;;;;;;;;;;;5032124;28;19932;-80
2021/09/05 06:21:11;;;;;;;;;;;;;;;;;;5035107;28;20313;-79
2021/09/05 06:23:55;;;;;;;;;;;;;;;;;;5029103;28;19920;-79
2021/09/05 06:26:39;;;;;;;;;;;;;;;;;;5039613;28;19925;-80
2021/09/05 06:29:24;;;;;;;;;;;;;;;;;;5042726;28;20392;-81
2021/09/05 06:32:08;;;;;;;;;;;;;;;;;;5036197;28;19976;-80
2021/09/05 06:34:52;;;;;;;;;;;;;;;;;;5043004;28;20412;-80
2021/09/05 06:37:36;;;;;;;;;;;;;;;;;;5045820;28;19924;-80
2021/09/05 06:40:20;;;;;;;;;;;;;;;;;;5036995;28;19921;-80
2021/09/05 06:43:05;;;;;;;;;;;;;;;;;;5052458;28;19920;-81
2021/09/05 06:45:49;;;;;;;;;;;;;;;;;;5031664;28;19924;-81
2021/09/05 06:48:33;;;;;;;;;;;;;;;;;;5037372;28;19936;-81
2021/09/05 06:51:17;;;;;;;;;;;;;;;;;;5040342;28;19920;-81
2021/09/05 06:54:01;;;;;;;;;;;;;;;;;;5019482;28;19921;-81
2021/09/05 06:56:46;;;;;;;;;;;;;;;;;;5041385;28;19940;-80
2021/09/05 06:59:30;;;;;;;;;;;;;;;;;;5041134;28;19936;-80
2021/09/05 07:02:17;;;;;;;;;;;;;;;;;;5042239;28;19920;-80
2021/09/05 07:05:01;;;;;;;;;;;;;;;;;;5041872;28;19932;-80
2021/09/05 07:07:46;;;;;;;;;;;;;;;;;;5044840;28;19923;-80
2021/09/05 07:10:30;;;;;;;;;;;;;;;;;;5031815;28;19936;-79
2021/09/05 07:13:14;;;;;;;;;;;;;;;;;;5036270;28;20301;-79
2021/09/05 07:15:58;;;;;;;;;;;;;;;;;;5037121;28;20857;-80
2021/09/05 07:18:43;;;;;;;;;;;;;;;;;;5036658;28;19924;-79
2021/09/05 07:21:27;;;;;;;;;;;;;;;;;;5038153;28;19988;-80
2021/09/05 07:24:11;;;;;;;;;;;;;;;;;;5042465;28;19920;-81
2021/09/05 07:26:55;;;;;;;;;;;;;;;;;;5033669;28;19947;-80
2021/09/05 07:29:40;;;;;;;;;;;;;;;;;;5034544;28;19920;-80
2021/09/05 07:32:25;;;;;;;;;;;;;;;;;;5039494;28;19924;-79
2021/09/05 07:35:09;;;;;;;;;;;;;;;;;;5029501;28;19920;-80
2021/09/05 07:37:54;;;;;;;;;;;;;;;;;;5036034;28;19920;-80
2021/09/05 07:40:38;;;;;;;;;;;;;;;;;;5041511;28;19920;-80
2021/09/05 07:43:22;;;;;;;;;;;;;;;;;;5036688;28;19921;-80
2021/09/05 07:46:06;;;;;;;;;;;;;;;;;;5050974;28;19928;-80
2021/09/05 07:48:50;;;;;;;;;;;;;;;;;;5040936;28;19936;-81
2021/09/05 07:51:35;;;;;;;;;;;;;;;;;;5030942;28;19921;-80
2021/09/05 07:54:19;;;;;;;;;;;;;;;;;;5036652;28;19921;-80
2021/09/05 07:57:03;;;;;;;;;;;;;;;;;;5037258;28;19929;-81
2021/09/05 07:59:47;;;;;;;;;;;;;;;;;;5035475;28;19928;-83
2021/09/05 08:02:32;;;;;;;;;;;;;;;;;;5038105;28;19920;-82
2021/09/05 08:05:16;;;;;;;;;;;;;;;;;;5038277;28;20416;-82
2021/09/05 08:08:00;;;;;;;;;;;;;;;;;;5037770;28;19921;-83
2021/09/05 08:10:44;;;;;;;;;;;;;;;;;;5036973;28;20428;-84
2021/09/05 08:13:29;;;;;;;;;;;;;;;;;;5024691;28;19920;-81
2021/09/05 08:16:13;;;;;;;;;;;;;;;;;;5018042;28;19921;-82
2021/09/05 08:18:57;;;;;;;;;;;;;;;;;;5021090;28;19921;-84
2021/09/05 08:21:41;;;;;;;;;;;;;;;;;;5032073;28;19928;-83
2021/09/05 08:24:25;;;;;;;;;;;;;;;;;;5037303;28;19920;-82
2021/09/05 08:27:09;;;;;;;;;;;;;;;;;;5037162;28;19924;-82
2021/09/05 08:29:54;;;;;;;;;;;;;;;;;;5037327;28;19920;-82
2021/09/05 08:32:38;;;;;;;;;;;;;;;;;;5036442;28;19944;-82
2021/09/05 08:35:23;;;;;;;;;;;;;;;;;;5036504;28;19920;-82
2021/09/05 08:38:08;;;;;;;;;;;;;;;;;;5042125;28;19920;-82
2021/09/05 08:40:52;;;;;;;;;;;;;;;;;;5040129;28;19920;-81
2021/09/05 08:43:37;;;;;;;;;;;;;;;;;;5045036;28;19920;-81
2021/09/05 08:46:21;;;;;;;;;;;;;;;;;;5041763;28;19925;-81
2021/09/05 08:49:06;;;;;;;;;;;;;;;;;;5040629;28;19940;-82
2021/09/05 08:51:50;;;;;;;;;;;;;;;;;;5040821;28;20297;-82
2021/09/05 08:54:34;;;;;;;;;;;;;;;;;;5039903;28;19920;-81
2021/09/05 08:57:19;;;;;;;;;;;;;;;;;;5041712;28;19920;-82
2021/09/05 09:00:03;;;;;;;;;;;;;;;;;;5041299;28;19924;-82
2021/09/05 09:02:47;;;;;;;;;;;;;;;;;;5039273;28;19920;-81
2021/09/05 09:05:31;;;;;;;;;;;;;;;;;;5041375;28;19984;-80
2021/09/05 09:08:15;;;;;;;;;;;;;;;;;;5040636;28;19940;-80
2021/09/05 09:11:01;;;;;;;;;;;;;;;;;;5041057;28;19919;-81
2021/09/05 09:13:46;;;;;;;;;;;;;;;;;;5041574;28;19988;-81
2021/09/05 09:16:30;;;;;;;;;;;;;;;;;;5041484;28;19921;-81
2021/09/05 09:19:14;;;;;;;;;;;;;;;;;;5042182;28;19920;-82
2021/09/05 09:21:58;;;;;;;;;;;;;;;;;;5041696;28;19920;-81
2021/09/05 09:24:43;;;;;;;;;;;;;;;;;;5041892;28;19924;-81
2021/09/05 09:27:27;;;;;;;;;;;;;;;;;;5040804;28;20297;-82
2021/09/05 09:30:11;;;;;;;;;;;;;;;;;;5041998;28;19920;-81
2021/09/05 09:32:55;;;;;;;;;;;;;;;;;;5041017;28;20325;-80
2021/09/05 09:35:39;;;;;;;;;;;;;;;;;;5044759;28;19921;-80
2021/09/05 09:38:24;;;;;;;;;;;;;;;;;;5038783;28;19920;-80
2021/09/05 09:41:08;;;;;;;;;;;;;;;;;;5040259;28;19920;-81
2021/09/05 09:43:52;;;;;;;;;;;;;;;;;;5039650;28;19921;-81
2021/09/05 09:46:37;;;;;;;;;;;;;;;;;;5041466;28;19924;-80
2021/09/05 09:49:21;;;;;;;;;;;;;;;;;;5037498;28;19920;-80
2021/09/05 09:52:05;;;;;;;;;;;;;;;;;;5038410;28;19925;-80
2021/09/05 09:54:49;;;;;;;;;;;;;;;;;;5038814;28;20317;-79
2021/09/05 09:57:34;;;;;;;;;;;;;;;;;;5039880;28;19924;-80
2021/09/05 10:00:18;;;;;;;;;;;;;;;;;;5039609;28;19920;-80
2021/09/05 10:03:02;;;;;;;;;;;;;;;;;;5038680;28;20480;-81
2021/09/05 10:05:46;;;;;;;;;;;;;;;;;;5033011;28;19928;-81
2021/09/05 10:08:30;;;;;;;;;;;;;;;;;;5019487;28;19928;-80
2021/09/05 10:11:16;;;;;;;;;;;;;;;;;;5036835;28;19925;-82
2021/09/05 10:14:01;;;;;;;;;;;;;;;;;;5023615;28;19920;-82
2021/09/05 10:16:45;;;;;;;;;;;;;;;;;;5030783;28;19920;-82
2021/09/05 10:19:30;;;;;;;;;;;;;;;;;;5040934;28;19920;-81
2021/09/05 10:22:14;;;;;;;;;;;;;;;;;;5039826;28;19920;-81
2021/09/05 10:24:58;;;;;;;;;;;;;;;;;;5039512;28;20392;-82
2021/09/05 10:27:42;;;;;;;;;;;;;;;;;;5039319;28;19936;-81
2021/09/05 10:30:26;;;;;;;;;;;;;;;;;;5038567;28;19925;-82
2021/09/05 10:33:12;;;;;;;;;;;;;;;;;;5038092;28;19927;-81
2021/09/05 10:35:56;;;;;;;;;;;;;;;;;;5040152;28;19924;-81
2021/09/05 10:38:40;;;;;;;;;;;;;;;;;;5042109;28;19920;-79
2021/09/05 10:41:24;;;;;;;;;;;;;;;;;;5037908;28;20428;-80
2021/09/05 10:44:09;;;;;;;;;;;;;;;;;;5037693;28;19940;-81
2021/09/05 10:46:55;;;;;;;;;;;;;;;;;;5039673;28;19924;-81
2021/09/05 10:49:39;;;;;;;;;;;;;;;;;;5040439;28;20289;-82
2021/09/05 10:52:24;;;;;;;;;;;;;;;;;;5037781;28;20408;-82
2021/09/05 10:55:08;;;;;;;;;;;;;;;;;;5041721;28;19920;-82
2021/09/05 10:57:53;;;;;;;;;;;;;;;;;;5040871;28;19920;-82
2021/09/05 11:00:38;;;;;;;;;;;;;;;;;;5035050;28;20297;-81
2021/09/05 11:03:22;;;;;;;;;;;;;;;;;;5039375;28;19920;-82
2021/09/05 11:06:06;;;;;;;;;;;;;;;;;;5039042;28;19928;-84
2021/09/05 11:08:51;;;;;;;;;;;;;;;;;;5039038;28;19924;-83
2021/09/05 11:11:35;;;;;;;;;;;;;;;;;;5037670;28;19920;-84
2021/09/05 11:14:20;;;;;;;;;;;;;;;;;;5040790;28;19928;-84
2021/09/05 11:17:07;;;;;;;;;;;;;;;;;;5036607;28;20401;-84
2021/09/05 11:19:54;;;;;;;;;;;;;;;;;;5034164;28;20400;-84
2021/09/05 11:22:38;;;;;;;;;;;;;;;;;;5033378;28;19928;-83
2021/09/05 11:25:24;;;;;;;;;;;;;;;;;;5032382;28;19921;-85
2021/09/05 11:28:09;;;;;;;;;;;;;;;;;;5023870;28;19920;-84
2021/09/05 11:30:54;;;;;;;;;;;;;;;;;;5036253;28;20168;-85
2021/09/05 11:33:39;;;;;;;;;;;;;;;;;;5038723;28;19928;-83
2021/09/05 11:36:23;;;;;;;;;;;;;;;;;;5052284;28;19920;-84
2021/09/05 11:39:09;;;;;;;;;;;;;;;;;;5041141;28;19921;-84
2021/09/05 11:41:54;;;;;;;;;;;;;;;;;;5039483;28;19920;-85
2021/09/05 11:44:38;;;;;;;;;;;;;;;;;;5042477;28;19920;-85
2021/09/05 11:47:23;;;;;;;;;;;;;;;;;;5039147;28;19984;-84
2021/09/05 11:50:09;;;;;;;;;;;;;;;;;;5051707;28;19920;-85
2021/09/05 11:52:53;;;;;;;;;;;;;;;;;;5038797;28;20374;-85
2021/09/05 11:55:39;;;;;;;;;;;;;;;;;;5038386;28;20408;-85
2021/09/05 11:58:23;;;;;;;;;;;;;;;;;;5040113;28;19924;-85
2021/09/05 12:01:08;;;;;;;;;;;;;;;;;;5036931;28;19924;-85
2021/09/05 12:03:53;;;;;;;;;;;;;;;;;;5037633;28;19924;-84
2021/09/05 12:06:39;;;;;;;;;;;;;;;;;;5037833;28;20586;-85
2021/09/05 12:09:24;;;;;;;;;;;;;;;;;;5035641;28;19925;-84
2021/09/05 12:12:08;;;;;;;;;;;;;;;;;;5028219;28;20301;-85
2021/09/05 12:14:53;;;;;;;;;;;;;;;;;;5041132;28;19924;-85
2021/09/05 12:17:38;;;;;;;;;;;;;;;;;;5041867;28;19920;-85
2021/09/05 12:20:22;;;;;;;;;;;;;;;;;;5042235;28;19920;-85
2021/09/05 12:23:07;;;;;;;;;;;;;;;;;;5031345;28;19920;-83
2021/09/05 12:25:51;;;;;;;;;;;;;;;;;;5038187;28;19924;-86
2021/09/05 12:28:36;;;;;;;;;;;;;;;;;;5040777;28;19935;-84
2021/09/05 12:31:20;;;;;;;;;;;;;;;;;;5040741;28;19920;-85
2021/09/05 12:34:05;;;;;;;;;;;;;;;;;;5040876;28;19920;-85
2021/09/05 12:36:50;;;;;;;;;;;;;;;;;;5046470;28;20305;-84
2021/09/05 12:39:34;;;;;;;;;;;;;;;;;;5046512;28;19929;-84
2021/09/05 12:42:19;;;;;;;;;;;;;;;;;;5026762;28;19920;-85
2021/09/05 12:45:03;;;;;;;;;;;;;;;;;;5021456;28;19921;-86
2021/09/05 12:47:48;;;;;;;;;;;;;;;;;;5033793;28;19925;-83
2021/09/05 12:50:32;;;;;;;;;;;;;;;;;;5021385;28;20396;-84
2021/09/05 12:53:17;;;;;;;;;;;;;;;;;;5023004;28;20396;-84
2021/09/05 12:56:02;;;;;;;;;;;;;;;;;;5039754;28;19920;-83
2021/09/05 12:58:46;;;;;;;;;;;;;;;;;;5040697;28;20345;-83
2021/09/05 13:01:32;;;;;;;;;;;;;;;;;;5039103;28;19920;-84
2021/09/05 13:04:17;;;;;;;;;;;;;;;;;;5051073;28;20309;-82
2021/09/05 13:07:02;;;;;;;;;;;;;;;;;;5039729;28;20305;-85
2021/09/05 13:09:47;;;;;;;;;;;;;;;;;;5039572;28;19928;-85
2021/09/05 13:12:32;;;;;;;;;;;;;;;;;;5043554;28;19920;-83
2021/09/05 13:15:17;;;;;;;;;;;;;;;;;;5039431;28;19924;-85
2021/09/05 13:18:01;;;;;;;;;;;;;;;;;;5039510;28;20408;-85
2021/09/05 13:20:45;;;;;;;;;;;;;;;;;;5038286;28;19920;-84
2021/09/05 13:23:30;;;;;;;;;;;;;;;;;;5040003;28;19921;-84
2021/09/05 13:26:14;;;;;;;;;;;;;;;;;;5038985;28;19928;-82
2021/09/05 13:28:58;;;;;;;;;;;;;;;;;;5039692;28;19920;-83
2021/09/05 13:31:43;;;;;;;;;;;;;;;;;;5041851;28;19924;-83
2021/09/05 13:34:28;;;;;;;;;;;;;;;;;;5038908;28;19920;-82
2021/09/05 13:37:12;;;;;;;;;;;;;;;;;;5040293;28;19920;-83
2021/09/05 13:39:58;;;;;;;;;;;;;;;;;;5039923;28;20408;-84
2021/09/05 13:42:44;;;;;;;;;;;;;;;;;;5052276;28;19920;-82
2021/09/05 13:45:30;;;;;;;;;;;;;;;;;;5043277;28;19921;-84
2021/09/05 13:48:14;;;;;;;;;;;;;;;;;;5039306;28;19936;-83
2021/09/05 13:50:59;;;;;;;;;;;;;;;;;;5052951;28;19920;-84
2021/09/05 13:53:44;;;;;;;;;;;;;;;;;;5040698;28;20297;-84
2021/09/05 13:56:28;;;;;;;;;;;;;;;;;;5052194;28;19920;-85
2021/09/05 13:59:13;;;;;;;;;;;;;;;;;;5040533;28;19935;-84
2021/09/05 14:01:57;;;;;;;;;;;;;;;;;;5039937;28;19920;-84
2021/09/05 14:04:42;;;;;;;;;;;;;;;;;;5043242;28;19924;-85
2021/09/05 14:07:27;;;;;;;;;;;;;;;;;;5040221;28;19928;-83
2021/09/05 14:10:12;;;;;;;;;;;;;;;;;;5039296;28;19984;-84
2021/09/05 14:12:56;;;;;;;;;;;;;;;;;;5039815;28;19939;-83
2021/09/05 14:15:41;;;;;;;;;;;;;;;;;;5039318;28;19920;-83
2021/09/05 14:18:25;;;;;;;;;;;;;;;;;;5037881;28;19920;-81
2021/09/05 14:21:10;;;;;;;;;;;;;;;;;;5042416;28;19920;-84
2021/09/05 14:23:55;;;;;;;;;;;;;;;;;;5038956;28;19920;-82
2021/09/05 14:26:40;;;;;;;;;;;;;;;;;;5043806;28;19927;-85
2021/09/05 14:29:34;;;;;;;;;;;;;;;;;;5038729;28;19920;-85
2021/09/05 14:50:19;;;;;;;;;;;;;;;;;;5018358;28;19920;-83
2021/09/05 14:56:06;;;;;;;;;;;;;;;;;;5037815;28;19928;-80
2021/09/05 15:13:23;;;;;;;;;;;;;;;;;;5041165;28;19920;-79
2021/09/05 15:16:08;;;;;;;;;;;;;;;;;;5037663;28;19920;-80
2021/09/05 15:18:52;;;;;;;;;;;;;;;;;;5035887;28;19920;-79
2021/09/05 15:21:53;;;;;;;;;;;;;;;;;;5036270;28;19922;-79
2021/09/05 15:24:37;;;;;;;;;;;;;;;;;;5036600;28;19920;-79
2021/09/05 15:27:32;;;;;;;;;;;;;;;;;;5036896;28;19936;-80
2021/09/05 15:30:42;;;;;;;;;;;;;;;;;;5036801;28;19920;-80
2021/09/05 15:36:24;;;;;;;;;;;;;;;;;;5041133;28;19920;-79
2021/09/05 15:39:32;;;;;;;;;;;;;;;;;;5037160;28;19920;-79
2021/09/05 15:51:33;;;;;;;;;;;;;;;;;;5037312;28;19924;-79
2021/09/05 15:54:22;;;;;;;;;;;;;;;;;;5036786;28;19920;-79
2021/09/05 15:57:07;;;;;;;;;;;;;;;;;;5039278;28;19924;-79
2021/09/05 15:59:58;;;;;;;;;;;;;;;;;;5038239;28;19920;-79
2021/09/05 16:18:01;;;;;;;;;;;;;;;;;;5036231;28;19920;-80
2021/09/05 16:20:46;;;;;;;;;;;;;;;;;;5035904;28;19925;-79
2021/09/05 16:23:32;;;;;;;;;;;;;;;;;;5037064;28;19921;-79
2021/09/05 16:26:17;;;;;;;;;;;;;;;;;;5035496;28;19928;-79
2021/09/05 16:29:06;;;;;;;;;;;;;;;;;;5033013;28;19921;-80
2021/09/05 16:31:50;;;;;;;;;;;;;;;;;;5035056;28;19936;-80
2021/09/05 16:38:01;;;;;;;;;;;;;;;;;;5036633;28;19936;-80
2021/09/05 16:40:46;;;;;;;;;;;;;;;;;;5026589;28;20289;-80
2021/09/05 16:43:30;;;;;;;;;;;;;;;;;;5036711;28;19924;-79
2021/09/05 16:46:16;;;;;;;;;;;;;;;;;;5037220;28;19925;-80
2021/09/05 16:49:00;;;;;;;;;;;;;;;;;;5047985;28;19927;-80
2021/09/05 16:51:44;;;;;;;;;;;;;;;;;;5039874;28;19932;-79
2021/09/05 16:54:29;;;;;;;;;;;;;;;;;;5035637;28;20432;-79
2021/09/05 16:57:15;;;;;;;;;;;;;;;;;;5035976;28;19920;-81
2021/09/05 17:00:00;;;;;;;;;;;;;;;;;;5040303;28;19983;-79
2021/09/05 17:02:44;;;;;;;;;;;;;;;;;;5044115;28;19924;-80
2021/09/05 17:05:29;;;;;;;;;;;;;;;;;;5039715;28;19924;-80
2021/09/05 17:08:13;;;;;;;;;;;;;;;;;;5039425;28;19924;-79
2021/09/05 17:10:59;;;;;;;;;;;;;;;;;;5039611;28;19920;-80
2021/09/05 17:13:43;;;;;;;;;;;;;;;;;;5039477;28;19936;-80
2021/09/05 17:16:28;;;;;;;;;;;;;;;;;;5038463;28;19936;-80
2021/09/05 17:19:13;;;;;;;;;;;;;;;;;;5037905;28;20333;-80
2021/09/05 17:21:58;;;;;;;;;;;;;;;;;;5039629;28;20592;-79
2021/09/05 17:24:42;;;;;;;;;;;;;;;;;;5051137;28;19924;-80
2021/09/05 17:27:29;;;;;;;;;;;;;;;;;;5039336;28;19924;-80
2021/09/05 17:30:14;;;;;;;;;;;;;;;;;;5038420;28;19920;-79
2021/09/05 17:33:02;;;;;;;;;;;;;;;;;;5039368;28;19935;-80
2021/09/05 17:35:46;;;;;;;;;;;;;;;;;;5038046;28;19920;-79
2021/09/05 17:38:31;;;;;;;;;;;;;;;;;;5020364;28;19920;-79
2021/09/05 17:41:15;;;;;;;;;;;;;;;;;;5021156;28;19985;-78
2021/09/05 17:43:59;;;;;;;;;;;;;;;;;;5019897;28;19920;-80
2021/09/05 17:46:45;;;;;;;;;;;;;;;;;;5034727;28;19924;-79
2021/09/05 17:49:30;;;;;;;;;;;;;;;;;;5050869;28;19920;-79
2021/09/05 17:52:16;;;;;;;;;;;;;;;;;;5039380;28;19922;-79
2021/09/05 17:55:00;;;;;;;;;;;;;;;;;;5043404;28;19921;-80
2021/09/05 17:57:44;;;;;;;;;;;;;;;;;;5058357;28;19940;-79
2021/09/05 18:00:29;;;;;;;;;;;;;;;;;;5038105;28;20301;-79
2021/09/05 18:03:13;;;;;;;;;;;;;;;;;;5035912;28;19920;-79
2021/09/05 18:05:57;;;;;;;;;;;;;;;;;;5051372;28;19924;-79
2021/09/05 18:08:49;;;;;;;;;;;;;;;;;;5038457;28;19924;-79
2021/09/05 18:11:34;;;;;;;;;;;;;;;;;;5035900;28;19936;-79
2021/09/05 18:14:18;;;;;;;;;;;;;;;;;;5033259;28;19928;-79
2021/09/05 18:17:02;;;;;;;;;;;;;;;;;;5035995;28;19928;-79
2021/09/05 18:19:47;;;;;;;;;;;;;;;;;;5029599;28;19924;-79
2021/09/05 18:22:32;;;;;;;;;;;;;;;;;;5034546;28;19921;-79
2021/09/05 18:25:18;;;;;;;;;;;;;;;;;;5036241;28;19919;-79
2021/09/05 18:28:02;;;;;;;;;;;;;;;;;;5037927;28;19924;-79
2021/09/05 18:30:47;;;;;;;;;;;;;;;;;;5036968;28;19924;-79
2021/09/05 18:33:35;;;;;;;;;;;;;;;;;;5040345;28;19957;-79
2021/09/05 18:36:21;;;;;;;;;;;;;;;;;;5036160;28;20392;-79
2021/09/05 18:39:06;;;;;;;;;;;;;;;;;;5024768;28;19932;-79
2021/09/05 18:41:54;;;;;;;;;;;;;;;;;;5035870;28;19920;-79
2021/09/05 18:44:38;;;;;;;;;;;;;;;;;;5037019;28;20393;-79
2021/09/05 18:47:23;;;;;;;;;;;;;;;;;;5034607;28;19925;-79
2021/09/05 18:50:07;;;;;;;;;;;;;;;;;;5031744;28;19932;-79
2021/09/05 18:52:54;;;;;;;;;;;;;;;;;;5030778;28;20400;-78
2021/09/05 18:55:39;;;;;;;;;;;;;;;;;;5033279;28;20317;-79
2021/09/05 18:58:24;;;;;;;;;;;;;;;;;;5026114;28;20310;-79
2021/09/05 19:01:10;;;;;;;;;;;;;;;;;;5032723;28;19920;-78
2021/09/05 19:03:55;;;;;;;;;;;;;;;;;;5034212;28;19920;-78
2021/09/05 19:06:41;;;;;;;;;;;;;;;;;;5031440;28;19924;-78
2021/09/05 19:09:26;;;;;;;;;;;;;;;;;;5031520;28;19924;-79
2021/09/05 19:12:13;;;;;;;;;;;;;;;;;;5034053;28;19924;-78
2021/09/05 19:14:59;;;;;;;;;;;;;;;;;;5037279;28;19928;-79
2021/09/05 19:17:44;;;;;;;;;;;;;;;;;;5031745;28;19920;-79
2021/09/05 19:20:29;;;;;;;;;;;;;;;;;;5044580;28;19924;-79
2021/09/05 19:23:15;;;;;;;;;;;;;;;;;;5041857;28;19920;-79
2021/09/05 19:26:00;;;;;;;;;;;;;;;;;;5036601;28;19921;-80
2021/09/05 19:28:46;;;;;;;;;;;;;;;;;;5035363;28;19928;-80
2021/09/05 19:31:30;;;;;;;;;;;;;;;;;;5035279;28;19921;-80
2021/09/05 19:34:15;;;;;;;;;;;;;;;;;;5035064;28;20297;-81
2021/09/05 19:37:01;;;;;;;;;;;;;;;;;;5027761;28;19950;-79
2021/09/05 19:39:46;;;;;;;;;;;;;;;;;;5036419;28;19921;-80
2021/09/05 19:42:31;;;;;;;;;;;;;;;;;;5037160;28;19920;-80
2021/09/05 19:45:17;;;;;;;;;;;;;;;;;;5016200;28;19936;-80
2021/09/05 19:48:02;;;;;;;;;;;;;;;;;;5029801;28;19924;-80
2021/09/05 19:50:46;;;;;;;;;;;;;;;;;;5035225;28;20285;-80
2021/09/05 19:53:32;;;;;;;;;;;;;;;;;;5036444;28;19920;-80
2021/09/05 19:56:16;;;;;;;;;;;;;;;;;;5031946;28;19929;-80
2021/09/05 19:59:01;;;;;;;;;;;;;;;;;;5029026;28;20296;-78
2021/09/05 20:01:46;;;;;;;;;;;;;;;;;;5022795;28;19920;-77
2021/09/05 20:04:31;;;;;;;;;;;;;;;;;;5034264;28;20179;-78
2021/09/05 20:07:15;;;;;;;;;;;;;;;;;;5034555;28;19940;-78
2021/09/05 20:10:00;;;;;;;;;;;;;;;;;;5037138;28;19924;-79
2021/09/05 20:12:45;;;;;;;;;;;;;;;;;;5028113;28;19932;-78
2021/09/05 20:15:30;;;;;;;;;;;;;;;;;;5028158;28;21312;-78